createdAt,value
2022-11-24T00:02:17.543Z,1.70
2022-11-24T00:04:44.097Z,1.13
2022-11-24T00:07:10.687Z,1.40
2022-11-24T00:09:37.237Z,1.27
2022-11-24T00:12:03.880Z,1.10
2022-11-24T00:14:30.499Z,0.70
2022-11-24T00:16:57.118Z,1.23
2022-11-24T00:19:23.829Z,0.85
2022-11-24T00:21:50.398Z,0.32
2022-11-24T00:24:16.991Z,1.05
2022-11-24T00:26:43.481Z,0.97
2022-11-24T00:29:11.753Z,0.57
2022-11-24T00:31:42.430Z,0.57
2022-11-24T00:34:14.042Z,0.68
2022-11-24T00:36:41.853Z,0.30
2022-11-24T00:39:12.338Z,0.50
2022-11-24T00:41:39.337Z,0.22
2022-11-24T00:44:06.382Z,0.30
2022-11-24T00:46:33.639Z,0.45
2022-11-24T00:49:00.511Z,0.50
2022-11-24T00:51:29.794Z,0.60
2022-11-24T00:54:01.041Z,0.20
2022-11-24T00:56:29.704Z,0.40
2022-11-24T00:58:56.421Z,0.57
2022-11-24T01:01:25.557Z,0.52
2022-11-24T01:03:52.686Z,1.47
2022-11-24T01:06:21.634Z,0.20
2022-11-24T01:08:48.407Z,0.47
2022-11-24T01:11:20.036Z,0.32
2022-11-24T01:13:49.157Z,0.47
2022-11-24T01:16:31.275Z,0.30
2022-11-24T01:18:58.292Z,0.25
2022-11-24T01:21:25.139Z,0.65
2022-11-24T01:23:51.629Z,0.93
2022-11-24T01:26:22.256Z,0.20
2022-11-24T01:28:53.260Z,0.40
2022-11-24T01:31:19.777Z,0.50
2022-11-24T01:33:46.259Z,0.40
2022-11-24T01:36:13.468Z,0.25
2022-11-24T01:38:40.015Z,0.30
2022-11-24T01:41:15.208Z,0.27
2022-11-24T01:43:42.687Z,0.60
2022-11-24T01:46:28.485Z,0.52
2022-11-24T01:49:24.591Z,0.20
2022-11-24T01:52:09.265Z,0.47
2022-11-24T01:54:46.228Z,0.40
2022-11-24T01:57:42.777Z,0.20
2022-11-24T02:00:12.895Z,0.30
2022-11-24T02:02:39.663Z,0.40
2022-11-24T02:05:11.726Z,0.40
2022-11-24T02:07:38.552Z,0.20
2022-11-24T02:10:14.669Z,0.63
2022-11-24T02:12:45.030Z,0.52
2022-11-24T02:15:11.965Z,0.20
2022-11-24T02:17:38.520Z,0.30
2022-11-24T02:20:08.957Z,0.40
2022-11-24T02:22:54.722Z,0.32
2022-11-24T02:25:27.480Z,0.50
2022-11-24T02:27:55.967Z,0.30
2022-11-24T02:30:23.293Z,1.15
2022-11-24T02:32:51.577Z,0.40
2022-11-24T02:35:18.785Z,0.25
2022-11-24T02:37:45.248Z,0.60
2022-11-24T02:40:15.527Z,0.80
2022-11-24T02:42:46.292Z,0.68
2022-11-24T02:45:16.502Z,0.67
2022-11-24T02:47:43.208Z,0.50
2022-11-24T02:50:09.917Z,0.63
2022-11-24T02:52:36.380Z,0.52
2022-11-24T02:55:04.042Z,0.60
2022-11-24T02:57:30.581Z,0.37
2022-11-24T02:59:57.162Z,0.95
2022-11-24T03:02:23.786Z,0.60
2022-11-24T03:04:50.375Z,0.85
2022-11-24T03:07:16.862Z,0.30
2022-11-24T03:09:43.477Z,0.73
2022-11-24T03:12:09.990Z,0.55
2022-11-24T03:14:36.828Z,0.45
2022-11-24T03:17:04.115Z,0.73
2022-11-24T03:19:30.620Z,0.50
2022-11-24T03:21:57.102Z,0.50
2022-11-24T03:24:23.565Z,0.80
2022-11-24T03:26:50.157Z,0.80
2022-11-24T03:29:16.927Z,0.77
2022-11-24T03:31:43.530Z,0.57
2022-11-24T03:34:10.289Z,0.53
2022-11-24T03:36:36.822Z,0.75
2022-11-24T03:39:03.361Z,0.82
2022-11-24T03:41:29.864Z,1.00
2022-11-24T03:43:56.368Z,0.52
2022-11-24T03:46:22.954Z,1.13
2022-11-24T03:48:49.421Z,0.98
2022-11-24T03:51:15.890Z,0.80
2022-11-24T03:53:42.470Z,0.57
2022-11-24T03:56:09.273Z,0.82
2022-11-24T03:58:35.847Z,0.83
2022-11-24T04:01:03.524Z,1.40
2022-11-24T04:03:30.120Z,1.25
2022-11-24T04:05:56.584Z,0.60
2022-11-24T04:08:23.191Z,0.93
2022-11-24T04:10:53.951Z,1.20
2022-11-24T04:13:22.748Z,0.90
2022-11-24T04:15:49.359Z,1.63
2022-11-24T04:18:15.843Z,1.10
2022-11-24T04:20:42.832Z,0.85
2022-11-24T04:23:09.852Z,0.77
2022-11-24T04:25:36.795Z,0.70
2022-11-24T04:28:03.597Z,1.27
2022-11-24T04:30:30.203Z,1.20
2022-11-24T04:32:57.336Z,0.80
2022-11-24T04:35:23.944Z,1.13
2022-11-24T04:37:50.525Z,1.25
2022-11-24T04:40:17.601Z,0.70
2022-11-24T04:42:44.107Z,0.80
2022-11-24T04:45:11.470Z,0.90
2022-11-24T04:47:38.463Z,1.10
2022-11-24T04:50:07.662Z,1.08
2022-11-24T04:52:34.415Z,0.98
2022-11-24T04:55:00.948Z,1.30
2022-11-24T04:57:27.859Z,1.20
2022-11-24T04:59:55.161Z,0.70
2022-11-24T05:02:22.363Z,1.00
2022-11-24T05:04:48.982Z,1.90
2022-11-24T05:07:19.011Z,0.85
2022-11-24T05:10:05.759Z,1.15
2022-11-24T05:12:32.233Z,1.60
2022-11-24T05:14:59.683Z,1.75
2022-11-24T05:17:34.911Z,1.10
2022-11-24T05:20:01.731Z,2.22
2022-11-24T05:22:29.337Z,1.23
2022-11-24T05:24:55.890Z,1.27
2022-11-24T05:27:22.730Z,1.00
2022-11-24T05:29:49.400Z,1.23
2022-11-24T05:32:15.904Z,1.58
2022-11-24T05:34:42.360Z,1.30
2022-11-24T05:37:08.998Z,1.40
2022-11-24T05:39:36.588Z,1.05
2022-11-24T05:42:25.104Z,1.45
2022-11-24T05:44:52.303Z,1.60
2022-11-24T05:47:19.249Z,1.40
2022-11-24T05:49:45.762Z,0.93
2022-11-24T05:52:12.346Z,1.13
2022-11-24T05:54:38.926Z,1.60
2022-11-24T05:57:05.404Z,1.00
2022-11-24T05:59:32.078Z,1.10
2022-11-24T06:01:58.645Z,1.10
2022-11-24T06:04:25.317Z,0.98
2022-11-24T06:06:52.134Z,1.20
2022-11-24T06:09:18.650Z,1.20
2022-11-24T06:11:47.582Z,1.52
2022-11-24T06:14:14.499Z,1.17
2022-11-24T06:16:41.112Z,1.85
2022-11-24T06:19:07.714Z,1.05
2022-11-24T06:21:34.180Z,1.83
2022-11-24T06:24:00.693Z,1.40
2022-11-24T06:26:27.617Z,1.60
2022-11-24T06:28:54.260Z,1.83
2022-11-24T06:31:20.830Z,1.85
2022-11-24T06:33:47.626Z,2.13
2022-11-24T06:36:14.892Z,1.75
2022-11-24T06:38:41.421Z,1.43
2022-11-24T06:41:12.171Z,1.40
2022-11-24T06:43:38.713Z,1.73
2022-11-24T06:46:05.564Z,1.33
2022-11-24T06:48:32.606Z,2.03
2022-11-24T06:51:04.054Z,1.30
2022-11-24T06:53:32.245Z,1.52
2022-11-24T06:56:02.526Z,1.70
2022-11-24T06:58:29.004Z,1.35
2022-11-24T07:00:55.550Z,1.13
2022-11-24T07:03:22.185Z,1.60
2022-11-24T07:05:48.972Z,1.33
2022-11-24T07:08:17.996Z,1.33
2022-11-24T07:10:45.000Z,1.25
2022-11-24T07:13:11.462Z,1.17
2022-11-24T07:15:37.932Z,1.73
2022-11-24T07:18:04.549Z,1.20
2022-11-24T07:20:31.089Z,1.27
2022-11-24T07:22:58.316Z,1.42
2022-11-24T07:25:25.841Z,2.03
2022-11-24T07:27:59.606Z,1.50
2022-11-24T07:30:27.681Z,1.15
2022-11-24T07:33:03.845Z,1.30
2022-11-24T07:35:30.843Z,1.52
2022-11-24T07:37:58.770Z,2.60
2022-11-24T07:40:26.653Z,1.33
2022-11-24T07:42:53.883Z,1.30
2022-11-24T07:45:21.152Z,1.45
2022-11-24T07:47:47.606Z,1.60
2022-11-24T07:50:14.199Z,2.15
2022-11-24T07:52:40.880Z,1.33
2022-11-24T07:55:08.067Z,1.63
2022-11-24T07:57:34.928Z,1.30
2022-11-24T08:00:01.881Z,1.45
2022-11-24T08:02:28.310Z,1.38
2022-11-24T08:04:54.828Z,1.33
2022-11-24T08:07:21.444Z,2.50
2022-11-24T08:09:50.244Z,2.20
2022-11-24T08:12:21.459Z,1.63
2022-11-24T08:14:49.952Z,1.45
2022-11-24T08:17:17.573Z,1.50
2022-11-24T08:19:44.353Z,2.13
2022-11-24T08:22:10.828Z,3.03
2022-11-24T08:24:37.833Z,2.47
2022-11-24T08:27:04.412Z,1.23
2022-11-24T08:29:31.226Z,1.53
2022-11-24T08:31:58.116Z,1.25
2022-11-24T08:34:26.121Z,1.55
2022-11-24T08:36:52.686Z,1.75
2022-11-24T08:39:20.312Z,1.92
2022-11-24T08:41:46.812Z,2.10
2022-11-24T08:44:15.889Z,1.52
2022-11-24T08:47:03.591Z,1.40
2022-11-24T08:49:30.048Z,2.10
2022-11-24T08:51:57.778Z,1.40
2022-11-24T08:54:25.707Z,2.00
2022-11-24T08:56:52.290Z,1.98
2022-11-24T08:59:18.967Z,2.90
2022-11-24T09:01:45.571Z,1.63
2022-11-24T09:04:12.221Z,1.88
2022-11-24T09:06:38.722Z,1.57
2022-11-24T09:09:05.182Z,1.52
2022-11-24T09:11:33.702Z,1.67
2022-11-24T09:14:00.187Z,2.20
2022-11-24T09:16:28.939Z,2.08
2022-11-24T09:18:57.610Z,2.00
2022-11-24T09:21:24.456Z,2.08
2022-11-24T09:23:52.669Z,2.58
2022-11-24T09:26:25.292Z,2.13
2022-11-24T09:28:56.268Z,2.20
2022-11-24T09:31:25.657Z,1.50
2022-11-24T09:33:53.084Z,1.75
2022-11-24T09:36:21.093Z,2.85
2022-11-24T09:38:47.916Z,1.83
2022-11-24T09:41:17.299Z,1.77
2022-11-24T09:44:07.433Z,2.67
2022-11-24T09:47:08.130Z,1.15
2022-11-24T09:49:43.285Z,2.17
2022-11-24T09:52:18.505Z,1.73
2022-11-24T09:54:56.670Z,1.75
2022-11-24T09:57:26.740Z,2.30
2022-11-24T10:00:11.830Z,3.03
2022-11-24T10:02:38.497Z,3.15
2022-11-24T10:05:06.848Z,3.22
2022-11-24T10:08:00.532Z,3.92
2022-11-24T10:10:50.803Z,2.60
2022-11-24T10:13:34.682Z,3.00
2022-11-24T10:16:09.287Z,3.95
2022-11-24T10:18:45.077Z,3.45
2022-11-24T10:21:17.672Z,3.50
2022-11-24T10:23:57.159Z,3.23
2022-11-24T10:26:36.246Z,2.60
2022-11-24T10:29:13.806Z,3.70
2022-11-24T10:31:43.309Z,2.35
2022-11-24T10:34:16.919Z,2.70
2022-11-24T10:37:00.499Z,2.93
2022-11-24T10:39:42.202Z,2.22
2022-11-24T10:42:28.796Z,3.25
2022-11-24T10:45:15.640Z,2.20
2022-11-24T10:47:44.328Z,3.08
2022-11-24T10:50:36.241Z,2.67
2022-11-24T10:53:14.877Z,3.53
2022-11-24T10:55:59.656Z,3.42
2022-11-24T10:58:36.070Z,1.90
2022-11-24T11:01:13.708Z,3.28
2022-11-24T11:03:48.748Z,2.70
2022-11-24T11:06:22.137Z,2.58
2022-11-24T11:08:48.681Z,2.80
2022-11-24T11:11:28.980Z,1.80
2022-11-24T11:14:04.587Z,2.22
2022-11-24T11:16:53.618Z,2.27
2022-11-24T11:19:49.503Z,2.70
2022-11-24T11:22:35.806Z,2.15
2022-11-24T11:25:24.283Z,2.85
2022-11-24T11:27:50.828Z,1.98
2022-11-24T11:35:51.220Z,1.55
2022-11-24T11:38:18.541Z,2.40
2022-11-24T11:40:48.698Z,2.58
2022-11-24T11:43:34.214Z,1.60
2022-11-24T11:46:10.303Z,2.22
2022-11-24T11:48:43.649Z,2.03
2022-11-24T11:51:25.916Z,2.03
2022-11-24T11:54:01.746Z,2.05
2022-11-24T11:56:35.772Z,2.67
2022-11-24T11:59:33.140Z,1.55
2022-11-24T12:02:33.423Z,2.78
2022-11-24T12:05:05.184Z,1.60
2022-11-24T12:08:11.601Z,1.33
2022-11-24T12:10:48.106Z,1.53
2022-11-24T12:13:31.409Z,1.42
2022-11-24T12:16:16.753Z,1.67
2022-11-24T12:19:02.838Z,2.42
2022-11-24T12:21:36.079Z,2.15
2022-11-24T12:24:34.864Z,1.73
2022-11-24T12:27:11.247Z,1.90
2022-11-24T12:29:52.181Z,1.42
2022-11-24T12:32:30.871Z,2.00
2022-11-24T12:35:08.964Z,2.90
2022-11-24T12:37:41.393Z,2.40
2022-11-24T12:41:25.452Z,2.13
2022-11-24T12:43:59.734Z,2.20
2022-11-24T12:46:38.376Z,2.13
2022-11-24T12:49:23.207Z,2.13
2022-11-24T12:51:59.794Z,1.83
2022-11-24T12:54:36.667Z,2.13
2022-11-24T12:57:21.618Z,2.65
2022-11-24T12:59:54.465Z,1.52
2022-11-24T13:02:30.014Z,1.88
2022-11-24T13:05:00.948Z,1.30
2022-11-24T13:07:44.040Z,1.52
2022-11-24T13:10:54.279Z,1.30
2022-11-24T13:13:17.427Z,2.40
2022-11-24T13:16:07.069Z,1.73
2022-11-24T13:19:17.121Z,1.80
2022-11-24T13:21:45.436Z,1.85
2022-11-24T13:24:19.209Z,1.70
2022-11-24T13:26:53.341Z,1.75
2022-11-24T13:29:39.286Z,1.88
2022-11-24T13:32:05.685Z,1.63
2022-11-24T13:34:45.576Z,1.42
2022-11-24T13:37:35.060Z,2.28
2022-11-24T13:40:26.427Z,2.00
2022-11-24T13:43:01.324Z,1.65
2022-11-24T13:45:40.925Z,1.90
2022-11-24T13:48:20.173Z,1.98
2022-11-24T13:50:49.782Z,2.47
2022-11-24T13:53:22.290Z,2.28
2022-11-24T13:56:00.165Z,2.10
2022-11-24T13:58:36.191Z,1.60
2022-11-24T14:01:05.689Z,1.80
2022-11-24T14:03:38.514Z,2.95
2022-11-24T14:06:05.809Z,1.50
2022-11-24T14:08:38.212Z,1.85
2022-11-24T14:11:14.540Z,1.43
2022-11-24T14:13:41.032Z,2.08
2022-11-24T14:16:10.657Z,2.00
2022-11-24T14:18:39.459Z,3.55
2022-11-24T14:21:27.063Z,1.30
2022-11-24T14:23:54.994Z,1.83
2022-11-24T14:26:30.621Z,1.55
2022-11-24T14:29:12.156Z,1.75
2022-11-24T14:31:38.706Z,1.65
2022-11-24T14:34:11.411Z,1.27
2022-11-24T14:36:41.822Z,1.70
2022-11-24T14:39:14.084Z,1.70
2022-11-24T14:41:43.344Z,2.50
2022-11-24T14:44:19.112Z,2.20
2022-11-24T14:46:45.971Z,1.65
2022-11-24T14:49:21.327Z,1.63
2022-11-24T14:51:56.478Z,1.38
2022-11-24T14:54:23.857Z,2.20
2022-11-24T14:56:59.458Z,1.35
2022-11-24T14:59:28.879Z,2.00
2022-11-24T15:01:57.005Z,1.67
2022-11-24T15:05:02.190Z,1.08
2022-11-24T15:07:26.984Z,1.25
2022-11-24T15:09:58.130Z,3.47
2022-11-24T15:12:36.312Z,1.50
2022-11-24T15:15:08.920Z,2.27
2022-11-24T15:17:35.496Z,1.40
2022-11-24T15:20:09.418Z,2.00
2022-11-24T15:22:41.925Z,0.90
2022-11-24T15:25:27.042Z,1.20
2022-11-24T15:27:53.677Z,1.40
2022-11-24T15:30:20.333Z,1.33
2022-11-24T15:32:57.332Z,0.70
2022-11-24T15:35:25.387Z,1.73
2022-11-24T15:37:52.288Z,1.58
2022-11-24T15:40:19.230Z,0.90
2022-11-24T15:42:56.885Z,1.65
2022-11-24T15:45:26.484Z,1.55
2022-11-24T15:47:53.080Z,1.13
2022-11-24T15:50:20.134Z,0.75
2022-11-24T15:52:48.347Z,1.23
2022-11-24T15:55:20.391Z,0.57
2022-11-24T15:57:47.304Z,0.75
2022-11-24T16:00:19.504Z,0.30
2022-11-24T16:02:46.286Z,0.65
2022-11-24T16:05:14.000Z,0.53
2022-11-24T16:07:40.659Z,0.70
2022-11-24T16:10:14.763Z,0.20
2022-11-24T16:12:41.258Z,0.30
2022-11-24T16:15:08.164Z,0.80
2022-11-24T16:17:34.733Z,0.70
2022-11-24T16:20:01.233Z,0.80
2022-11-24T16:22:27.682Z,0.50
2022-11-24T16:24:54.121Z,0.82
2022-11-24T16:27:20.580Z,0.50
2022-11-24T16:29:47.042Z,2.93
2022-11-24T16:32:13.572Z,0.73
2022-11-24T16:34:40.048Z,1.40
2022-11-24T16:37:06.519Z,0.95
2022-11-24T16:39:32.980Z,1.50
2022-11-24T16:41:59.418Z,0.73
2022-11-24T16:44:25.872Z,0.60
2022-11-24T16:46:52.349Z,0.90
2022-11-24T16:49:18.915Z,0.80
2022-11-24T16:51:45.417Z,1.30
2022-11-24T16:54:12.023Z,0.90
2022-11-24T16:56:38.503Z,0.70
2022-11-24T16:59:05.358Z,1.30
2022-11-24T17:01:32.894Z,0.50
2022-11-24T17:04:00.252Z,0.60
2022-11-24T17:06:27.121Z,0.80
2022-11-24T17:08:55.384Z,0.88
2022-11-24T17:11:24.253Z,0.55
2022-11-24T17:13:51.126Z,1.08
2022-11-24T17:16:22.293Z,0.85
2022-11-24T17:18:49.276Z,1.00
2022-11-24T17:21:18.782Z,1.40
2022-11-24T17:23:45.761Z,1.00
2022-11-24T17:26:14.976Z,1.05
2022-11-24T17:28:42.524Z,1.50
2022-11-24T17:31:28.658Z,1.37
2022-11-24T17:33:57.101Z,1.65
2022-11-24T17:36:23.616Z,1.25
2022-11-24T17:38:50.453Z,1.55
2022-11-24T17:41:17.864Z,0.82
2022-11-24T17:43:48.481Z,0.77
2022-11-24T17:46:14.940Z,1.70
2022-11-24T17:48:41.570Z,1.52
2022-11-24T17:51:12.915Z,1.38
2022-11-24T17:53:41.345Z,0.95
2022-11-24T17:56:11.369Z,2.03
2022-11-24T17:58:42.696Z,1.30
2022-11-24T18:01:10.913Z,1.88
2022-11-24T18:03:39.449Z,1.23
2022-11-24T18:06:14.286Z,1.73
2022-11-24T18:08:43.541Z,1.00
2022-11-24T18:11:12.926Z,1.38
2022-11-24T18:13:56.452Z,1.60
2022-11-24T18:16:28.125Z,0.90
2022-11-24T18:19:08.478Z,2.35
2022-11-24T18:21:44.675Z,1.83
2022-11-24T18:24:12.484Z,2.13
2022-11-24T18:26:40.815Z,2.35
2022-11-24T18:29:08.423Z,2.78
2022-11-24T18:31:35.830Z,2.30
2022-11-24T18:34:04.430Z,1.30
2022-11-24T18:36:31.571Z,2.55
2022-11-24T18:39:01.930Z,1.92
2022-11-24T18:41:28.384Z,1.63
2022-11-24T18:43:54.894Z,1.70
2022-11-24T18:46:21.587Z,2.80
2022-11-24T18:48:48.247Z,1.95
2022-11-24T18:51:14.901Z,2.25
2022-11-24T18:53:42.446Z,1.45
2022-11-24T18:56:13.216Z,2.00
2022-11-24T18:58:40.089Z,2.13
2022-11-24T19:01:07.610Z,2.47
2022-11-24T19:03:36.896Z,2.45
2022-11-24T19:06:04.779Z,1.73
2022-11-24T19:08:31.613Z,1.65
2022-11-24T19:10:58.298Z,1.30
2022-11-24T19:13:24.752Z,1.90
2022-11-24T19:15:52.009Z,1.90
2022-11-24T19:18:19.831Z,2.15
2022-11-24T19:20:46.406Z,2.58
2022-11-24T19:23:13.001Z,2.83
2022-11-24T19:25:39.457Z,3.33
2022-11-24T19:28:05.997Z,2.40
2022-11-24T19:30:32.449Z,3.53
2022-11-24T19:32:58.915Z,2.33
2022-11-24T19:35:25.557Z,2.70
2022-11-24T19:37:51.999Z,2.05
2022-11-24T19:40:18.546Z,2.83
2022-11-24T19:42:45.007Z,2.17
2022-11-24T19:45:11.475Z,1.85
2022-11-24T19:47:38.150Z,2.53
2022-11-24T19:50:10.216Z,2.10
2022-11-24T19:52:37.084Z,2.00
2022-11-24T19:55:03.744Z,2.30
2022-11-24T19:57:30.188Z,1.98
2022-11-24T19:59:56.740Z,1.87
2022-11-24T20:02:23.346Z,1.90
2022-11-24T20:04:49.849Z,3.17
2022-11-24T20:07:16.750Z,2.10
2022-11-24T20:09:43.229Z,2.00
2022-11-24T20:12:09.850Z,2.37
2022-11-24T20:14:36.741Z,2.25
2022-11-24T20:17:04.603Z,2.35
2022-11-24T20:19:32.688Z,1.63
2022-11-24T20:22:00.151Z,2.03
2022-11-24T20:24:26.614Z,2.63
2022-11-24T20:26:58.868Z,2.22
2022-11-24T20:29:25.904Z,1.95
2022-11-24T20:31:54.734Z,2.95
2022-11-24T20:34:22.307Z,2.40
2022-11-24T20:36:49.245Z,3.47
2022-11-24T20:39:18.965Z,4.32
2022-11-24T20:41:45.547Z,3.72
2022-11-24T20:44:17.104Z,5.40
2022-11-24T20:46:45.371Z,5.15
2022-11-24T20:49:14.911Z,3.57
2022-11-24T20:51:46.921Z,3.42
2022-11-24T20:54:14.500Z,3.33
2022-11-24T20:56:42.948Z,4.10
2022-11-24T20:59:16.030Z,4.00
2022-11-24T21:01:45.375Z,4.53
2022-11-24T21:04:16.519Z,5.57
2022-11-24T21:06:43.097Z,5.18
2022-11-24T21:09:10.308Z,7.60
2022-11-24T21:11:38.141Z,7.13
2022-11-24T21:14:05.550Z,3.73
2022-11-24T21:16:40.167Z,4.55
2022-11-24T21:19:10.179Z,11.68
2022-11-24T21:21:37.623Z,11.63
2022-11-24T21:24:25.700Z,5.28
2022-11-24T21:26:52.799Z,3.10
2022-11-24T21:29:22.199Z,3.65
2022-11-24T21:31:48.959Z,3.33
2022-11-24T21:34:18.340Z,2.10
2022-11-24T21:36:45.392Z,1.48
2022-11-24T21:39:13.701Z,2.17
2022-11-24T21:41:40.829Z,2.92
2022-11-24T21:44:07.358Z,2.33
2022-11-24T21:46:40.443Z,2.00
2022-11-24T21:49:09.081Z,2.75
2022-11-24T21:51:35.558Z,2.57
2022-11-24T21:54:02.097Z,1.85
2022-11-24T21:56:28.629Z,2.28
2022-11-24T21:58:57.323Z,2.00
2022-11-24T22:01:27.224Z,1.75
2022-11-24T22:03:54.383Z,1.70
2022-11-24T22:06:21.291Z,2.15
2022-11-24T22:08:48.247Z,1.77
2022-11-24T22:11:20.927Z,2.42
2022-11-24T22:13:48.771Z,1.95
2022-11-24T22:16:17.790Z,2.27
2022-11-24T22:18:45.530Z,1.88
2022-11-24T22:21:17.641Z,2.28
2022-11-24T22:23:44.206Z,1.80
2022-11-24T22:26:12.464Z,2.00
2022-11-24T22:28:39.535Z,2.27
2022-11-24T22:31:11.885Z,1.35
2022-11-24T22:33:39.295Z,1.77
2022-11-24T22:36:06.731Z,0.90
2022-11-24T22:38:34.416Z,1.65
2022-11-24T22:41:02.605Z,1.50
2022-11-24T22:43:31.612Z,1.88
2022-11-24T22:46:03.116Z,2.38
2022-11-24T22:48:29.621Z,1.30
2022-11-24T22:51:04.656Z,1.92
2022-11-24T22:53:31.145Z,1.20
2022-11-24T22:56:01.298Z,1.85
2022-11-24T22:58:27.871Z,1.85
2022-11-24T23:00:54.302Z,1.52
2022-11-24T23:03:20.859Z,1.48
2022-11-24T23:05:47.502Z,1.53
2022-11-24T23:08:13.960Z,1.60
2022-11-24T23:10:40.403Z,1.60
2022-11-24T23:13:06.970Z,2.47
2022-11-24T23:15:33.414Z,1.33
2022-11-24T23:17:59.910Z,1.93
2022-11-24T23:20:26.449Z,1.60
2022-11-24T23:22:53.195Z,1.35
2022-11-24T23:25:19.629Z,1.58
2022-11-24T23:27:46.077Z,2.13
2022-11-24T23:30:12.630Z,2.03
2022-11-24T23:32:39.195Z,1.77
2022-11-24T23:35:09.659Z,1.80
2022-11-24T23:38:06.036Z,1.42
2022-11-24T23:40:26.673Z,1.73
2022-11-24T23:42:53.111Z,1.90
2022-11-24T23:45:19.549Z,2.15
2022-11-24T23:47:46.025Z,1.85
2022-11-24T23:50:12.562Z,1.88
2022-11-24T23:52:39.067Z,1.38
2022-11-24T23:55:05.918Z,1.50
2022-11-24T23:57:32.352Z,1.52
2022-11-24T23:59:58.784Z,1.70
